Terminal Aerodrome Forecast
Issued by NWS

Home | Current Version | Previous Version | Text Only | Print | Product List | Glossary On
Versions: 1 2 3 4 5 6 7 8 9 10 11 12 13
000
FTPQ31 PGUM 301100
TAFKWA
TAF
PKWA 301128Z 3012/0112 04010KT P6SM VCSH SCT018 SCT045=

USA.gov is the U.S. government's official web portal to all federal, state and local government web resources and services.